sensor_id;sensor_type;location;lat;lon;timestamp;P1;durP1;ratioP1;P2;durP2;ratioP2
5475;SDS011;2760;50.000;9.194;2023-06-10T03:41:18;10.77;;;8.70;;
5475;SDS011;2760;50.000;9.194;2023-06-10T03:43:47;11.53;;;9.20;;
5475;SDS011;2760;50.000;9.194;2023-06-10T03:46:15;12.60;;;8.43;;
5475;SDS011;2760;50.000;9.194;2023-06-10T03:48:43;9.67;;;8.63;;
5475;SDS011;2760;50.000;9.194;2023-06-10T03:51:11;14.27;;;9.30;;
5475;SDS011;2760;50.000;9.194;2023-06-10T03:53:38;10.40;;;8.80;;
5475;SDS011;2760;50.000;9.194;2023-06-10T03:56:05;10.30;;;9.00;;
5475;SDS011;2760;50.000;9.194;2023-06-10T03:58:35;11.80;;;8.70;;
5475;SDS011;2760;50.000;9.194;2023-06-10T04:01:03;11.70;;;8.50;;
5475;SDS011;2760;50.000;9.194;2023-06-10T04:03:35;16.50;;;9.57;;
5475;SDS011;2760;50.000;9.194;2023-06-10T04:06:02;11.30;;;8.97;;
5475;SDS011;2760;50.000;9.194;2023-06-10T04:08:30;10.73;;;8.80;;
5475;SDS011;2760;50.000;9.194;2023-06-10T04:10:59;12.63;;;9.23;;
5475;SDS011;2760;50.000;9.194;2023-06-10T04:13:26;11.90;;;8.50;;
5475;SDS011;2760;50.000;9.194;2023-06-10T04:16:00;10.33;;;9.10;;
5475;SDS011;2760;50.000;9.194;2023-06-10T04:18:29;11.47;;;8.63;;
5475;SDS011;2760;50.000;9.194;2023-06-10T04:21:00;10.57;;;8.20;;
5475;SDS011;2760;50.000;9.194;2023-06-10T04:23:29;8.90;;;8.00;;
5475;SDS011;2760;50.000;9.194;2023-06-10T04:25:56;11.40;;;9.63;;
5475;SDS011;2760;50.000;9.194;2023-06-10T04:28:25;10.43;;;8.50;;
5475;SDS011;2760;50.000;9.194;2023-06-10T04:30:53;11.00;;;8.50;;
5475;SDS011;2760;50.000;9.194;2023-06-10T04:33:21;11.13;;;10.00;;
5475;SDS011;2760;50.000;9.194;2023-06-10T04:35:49;12.93;;;9.60;;
5475;SDS011;2760;50.000;9.194;2023-06-10T04:38:19;11.53;;;9.40;;
5475;SDS011;2760;50.000;9.194;2023-06-10T04:40:46;13.87;;;8.77;;
5475;SDS011;2760;50.000;9.194;2023-06-10T04:43:14;10.93;;;8.80;;
5475;SDS011;2760;50.000;9.194;2023-06-10T04:45:44;13.10;;;9.23;;
5475;SDS011;2760;50.000;9.194;2023-06-10T04:48:12;12.50;;;9.00;;
5475;SDS011;2760;50.000;9.194;2023-06-10T04:50:42;13.47;;;8.93;;
5475;SDS011;2760;50.000;9.194;2023-06-10T04:53:10;10.00;;;9.00;;
5475;SDS011;2760;50.000;9.194;2023-06-10T04:55:44;12.33;;;9.83;;
5475;SDS011;2760;50.000;9.194;2023-06-10T04:58:11;11.83;;;9.43;;
5475;SDS011;2760;50.000;9.194;2023-06-10T05:00:39;11.27;;;9.53;;
5475;SDS011;2760;50.000;9.194;2023-06-10T05:03:06;13.43;;;9.33;;
5475;SDS011;2760;50.000;9.194;2023-06-10T05:05:33;12.00;;;9.30;;
5475;SDS011;2760;50.000;9.194;2023-06-10T05:08:01;13.63;;;9.53;;
5475;SDS011;2760;50.000;9.194;2023-06-10T05:10:28;14.50;;;7.83;;
5475;SDS011;2760;50.000;9.194;2023-06-10T05:12:56;16.10;;;8.83;;
5475;SDS011;2760;50.000;9.194;2023-06-10T05:15:24;12.53;;;8.97;;
5475;SDS011;2760;50.000;9.194;2023-06-10T05:17:51;8.90;;;7.97;;
5475;SDS011;2760;50.000;9.194;2023-06-10T05:20:18;10.90;;;8.80;;
5475;SDS011;2760;50.000;9.194;2023-06-10T05:22:45;12.17;;;8.40;;
5475;SDS011;2760;50.000;9.194;2023-06-10T05:25:13;10.53;;;7.90;;
5475;SDS011;2760;50.000;9.194;2023-06-10T05:27:40;9.47;;;8.47;;
5475;SDS011;2760;50.000;9.194;2023-06-10T05:30:08;9.90;;;8.33;;
5475;SDS011;2760;50.000;9.194;2023-06-10T05:32:40;17.00;;;9.47;;
5475;SDS011;2760;50.000;9.194;2023-06-10T05:35:07;8.67;;;7.77;;
5475;SDS011;2760;50.000;9.194;2023-06-10T05:37:34;8.73;;;7.40;;
5475;SDS011;2760;50.000;9.194;2023-06-10T05:40:02;10.60;;;9.03;;
5475;SDS011;2760;50.000;9.194;2023-06-10T05:42:31;9.50;;;7.87;;
5475;SDS011;2760;50.000;9.194;2023-06-10T05:44:58;12.73;;;8.63;;
5475;SDS011;2760;50.000;9.194;2023-06-10T05:47:25;12.93;;;7.50;;
5475;SDS011;2760;50.000;9.194;2023-06-10T05:49:52;9.40;;;7.87;;
5475;SDS011;2760;50.000;9.194;2023-06-10T05:52:19;12.03;;;8.10;;
5475;SDS011;2760;50.000;9.194;2023-06-10T05:54:46;12.17;;;8.13;;
5475;SDS011;2760;50.000;9.194;2023-06-10T05:57:13;8.67;;;7.77;;
5475;SDS011;2760;50.000;9.194;2023-06-10T05:59:41;8.17;;;7.37;;
5475;SDS011;2760;50.000;9.194;2023-06-10T06:02:08;10.10;;;7.50;;
5475;SDS011;2760;50.000;9.194;2023-06-10T06:04:35;11.60;;;7.83;;
5475;SDS011;2760;50.000;9.194;2023-06-10T06:07:05;14.03;;;7.73;;
5475;SDS011;2760;50.000;9.194;2023-06-10T06:09:33;10.10;;;7.93;;
5475;SDS011;2760;50.000;9.194;2023-06-10T06:12:00;13.90;;;7.83;;
5475;SDS011;2760;50.000;9.194;2023-06-10T06:14:30;9.00;;;7.70;;
5475;SDS011;2760;50.000;9.194;2023-06-10T06:20:29;10.47;;;9.10;;
5475;SDS011;2760;50.000;9.194;2023-06-10T06:22:56;9.53;;;7.20;;
5475;SDS011;2760;50.000;9.194;2023-06-10T06:35:40;12.47;;;7.83;;
5475;SDS011;2760;50.000;9.194;2023-06-10T06:38:39;12.27;;;8.60;;
5475;SDS011;2760;50.000;9.194;2023-06-10T06:57:54;11.90;;;8.37;;
5475;SDS011;2760;50.000;9.194;2023-06-10T07:00:27;12.90;;;8.30;;
5475;SDS011;2760;50.000;9.194;2023-06-10T07:02:56;9.43;;;7.93;;
5475;SDS011;2760;50.000;9.194;2023-06-10T07:05:23;14.17;;;7.73;;
5475;SDS011;2760;50.000;9.194;2023-06-10T07:07:52;11.50;;;8.53;;
5475;SDS011;2760;50.000;9.194;2023-06-10T07:10:22;11.03;;;7.93;;
5475;SDS011;2760;50.000;9.194;2023-06-10T07:12:55;7.90;;;7.20;;
5475;SDS011;2760;50.000;9.194;2023-06-10T07:15:22;13.00;;;8.47;;
5475;SDS011;2760;50.000;9.194;2023-06-10T07:17:49;10.77;;;8.47;;
5475;SDS011;2760;50.000;9.194;2023-06-10T07:20:18;12.07;;;8.50;;
5475;SDS011;2760;50.000;9.194;2023-06-10T07:22:54;9.87;;;8.30;;
5475;SDS011;2760;50.000;9.194;2023-06-10T07:25:26;8.47;;;7.60;;
5475;SDS011;2760;50.000;9.194;2023-06-10T07:27:54;17.37;;;11.97;;
5475;SDS011;2760;50.000;9.194;2023-06-10T07:30:21;8.60;;;7.60;;
5475;SDS011;2760;50.000;9.194;2023-06-10T07:32:48;8.80;;;8.00;;
5475;SDS011;2760;50.000;9.194;2023-06-10T07:35:16;14.10;;;8.73;;
5475;SDS011;2760;50.000;9.194;2023-06-10T07:37:44;12.93;;;8.00;;
5475;SDS011;2760;50.000;9.194;2023-06-10T07:40:17;10.63;;;7.90;;
5475;SDS011;2760;50.000;9.194;2023-06-10T07:42:45;14.27;;;8.20;;
5475;SDS011;2760;50.000;9.194;2023-06-10T07:45:20;15.47;;;7.73;;
5475;SDS011;2760;50.000;9.194;2023-06-10T07:47:48;8.70;;;7.73;;
5475;SDS011;2760;50.000;9.194;2023-06-10T07:50:21;13.07;;;8.23;;
5475;SDS011;2760;50.000;9.194;2023-06-10T07:55:58;8.93;;;7.40;;
5475;SDS011;2760;50.000;9.194;2023-06-10T07:58:31;11.50;;;7.53;;
5475;SDS011;2760;50.000;9.194;2023-06-10T08:01:38;7.97;;;7.17;;
5475;SDS011;2760;50.000;9.194;2023-06-10T08:04:08;8.67;;;7.27;;
5475;SDS011;2760;50.000;9.194;2023-06-10T08:06:35;9.40;;;7.60;;
5475;SDS011;2760;50.000;9.194;2023-06-10T08:09:03;11.40;;;7.83;;
5475;SDS011;2760;50.000;9.194;2023-06-10T08:11:31;12.50;;;7.07;;
5475;SDS011;2760;50.000;9.194;2023-06-10T08:20:17;10.43;;;7.67;;
5475;SDS011;2760;50.000;9.194;2023-06-10T08:22:54;9.10;;;6.37;;
5475;SDS011;2760;50.000;9.194;2023-06-10T08:26:11;9.27;;;6.60;;
5475;SDS011;2760;50.000;9.194;2023-06-10T08:28:46;10.37;;;6.57;;
5475;SDS011;2760;50.000;9.194;2023-06-10T08:35:22;9.03;;;6.60;;
5475;SDS011;2760;50.000;9.194;2023-06-10T08:37:57;15.10;;;7.10;;
5475;SDS011;2760;50.000;9.194;2023-06-10T08:40:41;9.73;;;6.30;;
5475;SDS011;2760;50.000;9.194;2023-06-10T08:54:05;10.27;;;6.70;;
5475;SDS011;2760;50.000;9.194;2023-06-10T08:57:12;12.43;;;6.60;;
5475;SDS011;2760;50.000;9.194;2023-06-10T08:59:43;7.20;;;6.60;;
5475;SDS011;2760;50.000;9.194;2023-06-10T09:02:38;8.10;;;6.50;;
5475;SDS011;2760;50.000;9.194;2023-06-10T09:05:40;10.23;;;5.23;;
5475;SDS011;2760;50.000;9.194;2023-06-10T09:08:16;7.60;;;6.13;;
5475;SDS011;2760;50.000;9.194;2023-06-10T09:10:45;11.63;;;5.97;;
5475;SDS011;2760;50.000;9.194;2023-06-10T09:13:41;6.90;;;5.97;;
5475;SDS011;2760;50.000;9.194;2023-06-10T09:16:44;8.53;;;6.50;;
5475;SDS011;2760;50.000;9.194;2023-06-10T09:19:24;6.70;;;5.90;;
5475;SDS011;2760;50.000;9.194;2023-06-10T09:21:53;16.23;;;6.30;;
5475;SDS011;2760;50.000;9.194;2023-06-10T09:24:23;6.90;;;6.20;;
5475;SDS011;2760;50.000;9.194;2023-06-10T09:27:03;7.43;;;5.77;;
5475;SDS011;2760;50.000;9.194;2023-06-10T09:29:46;8.40;;;7.10;;
5475;SDS011;2760;50.000;9.194;2023-06-10T09:32:14;6.73;;;5.33;;
5475;SDS011;2760;50.000;9.194;2023-06-10T09:34:48;12.03;;;5.30;;
5475;SDS011;2760;50.000;9.194;2023-06-10T09:37:19;7.10;;;5.90;;
5475;SDS011;2760;50.000;9.194;2023-06-10T09:40:00;7.47;;;6.73;;
5475;SDS011;2760;50.000;9.194;2023-06-10T09:42:37;10.13;;;6.40;;
5475;SDS011;2760;50.000;9.194;2023-06-10T09:45:14;8.60;;;6.40;;
5475;SDS011;2760;50.000;9.194;2023-06-10T09:48:02;6.70;;;5.50;;
5475;SDS011;2760;50.000;9.194;2023-06-10T09:50:37;10.10;;;5.20;;
5475;SDS011;2760;50.000;9.194;2023-06-10T09:53:14;6.90;;;6.30;;
5475;SDS011;2760;50.000;9.194;2023-06-10T09:55:47;9.23;;;5.43;;
5475;SDS011;2760;50.000;9.194;2023-06-10T09:58:39;6.80;;;4.60;;
5475;SDS011;2760;50.000;9.194;2023-06-10T10:01:10;16.13;;;6.07;;
5475;SDS011;2760;50.000;9.194;2023-06-10T10:03:47;5.27;;;4.80;;
5475;SDS011;2760;50.000;9.194;2023-06-10T10:06:15;6.33;;;5.10;;
5475;SDS011;2760;50.000;9.194;2023-06-10T10:08:47;5.70;;;5.10;;
5475;SDS011;2760;50.000;9.194;2023-06-10T10:11:17;7.43;;;6.00;;
5475;SDS011;2760;50.000;9.194;2023-06-10T10:13:48;8.13;;;5.60;;
5475;SDS011;2760;50.000;9.194;2023-06-10T10:16:17;5.57;;;5.10;;
5475;SDS011;2760;50.000;9.194;2023-06-10T10:18:46;5.53;;;4.83;;
5475;SDS011;2760;50.000;9.194;2023-06-10T10:21:21;5.27;;;4.77;;
5475;SDS011;2760;50.000;9.194;2023-06-10T10:23:58;6.00;;;5.10;;
5475;SDS011;2760;50.000;9.194;2023-06-10T10:26:59;4.43;;;4.13;;
5475;SDS011;2760;50.000;9.194;2023-06-10T10:29:36;8.43;;;4.53;;
5475;SDS011;2760;50.000;9.194;2023-06-10T10:35:31;6.50;;;4.93;;
5475;SDS011;2760;50.000;9.194;2023-06-10T10:38:17;5.80;;;5.20;;
5475;SDS011;2760;50.000;9.194;2023-06-10T10:41:06;5.20;;;4.70;;
5475;SDS011;2760;50.000;9.194;2023-06-10T10:43:49;6.07;;;5.17;;
5475;SDS011;2760;50.000;9.194;2023-06-10T10:50:04;5.20;;;4.80;;
5475;SDS011;2760;50.000;9.194;2023-06-10T10:52:58;6.77;;;5.53;;
5475;SDS011;2760;50.000;9.194;2023-06-10T10:55:59;5.47;;;4.97;;
5475;SDS011;2760;50.000;9.194;2023-06-10T11:01:39;5.87;;;5.37;;
5475;SDS011;2760;50.000;9.194;2023-06-10T11:04:09;6.20;;;5.40;;
5475;SDS011;2760;50.000;9.194;2023-06-10T11:06:36;5.43;;;4.80;;
5475;SDS011;2760;50.000;9.194;2023-06-10T11:11:52;7.33;;;5.37;;
5475;SDS011;2760;50.000;9.194;2023-06-10T11:14:26;6.33;;;5.00;;
5475;SDS011;2760;50.000;9.194;2023-06-10T11:16:56;10.80;;;5.53;;
5475;SDS011;2760;50.000;9.194;2023-06-10T11:19:35;5.67;;;5.07;;
5475;SDS011;2760;50.000;9.194;2023-06-10T11:22:05;6.63;;;5.10;;
5475;SDS011;2760;50.000;9.194;2023-06-10T11:24:33;5.30;;;4.90;;
5475;SDS011;2760;50.000;9.194;2023-06-10T11:27:14;6.50;;;5.57;;
5475;SDS011;2760;50.000;9.194;2023-06-10T11:29:58;7.00;;;5.57;;
5475;SDS011;2760;50.000;9.194;2023-06-10T11:32:52;5.53;;;5.03;;
5475;SDS011;2760;50.000;9.194;2023-06-10T11:35:28;8.33;;;5.80;;
5475;SDS011;2760;50.000;9.194;2023-06-10T11:37:56;5.60;;;5.10;;
5475;SDS011;2760;50.000;9.194;2023-06-10T11:40:26;9.27;;;5.67;;
5475;SDS011;2760;50.000;9.194;2023-06-10T11:43:03;7.40;;;5.73;;
5475;SDS011;2760;50.000;9.194;2023-06-10T11:45:53;6.43;;;5.23;;
5475;SDS011;2760;50.000;9.194;2023-06-10T11:48:37;5.60;;;5.10;;
5475;SDS011;2760;50.000;9.194;2023-06-10T11:51:39;6.30;;;4.83;;
5475;SDS011;2760;50.000;9.194;2023-06-10T11:54:19;7.90;;;5.90;;
5475;SDS011;2760;50.000;9.194;2023-06-10T11:56:47;6.13;;;5.27;;
5475;SDS011;2760;50.000;9.194;2023-06-10T11:59:15;8.33;;;5.77;;
5475;SDS011;2760;50.000;9.194;2023-06-10T12:01:42;8.70;;;6.00;;
5475;SDS011;2760;50.000;9.194;2023-06-10T12:04:11;6.67;;;5.50;;
5475;SDS011;2760;50.000;9.194;2023-06-10T12:06:52;8.00;;;5.70;;
5475;SDS011;2760;50.000;9.194;2023-06-10T12:09:23;5.30;;;4.90;;
5475;SDS011;2760;50.000;9.194;2023-06-10T12:11:52;7.70;;;5.17;;
5475;SDS011;2760;50.000;9.194;2023-06-10T12:17:22;6.10;;;5.60;;
5475;SDS011;2760;50.000;9.194;2023-06-10T12:19:50;5.80;;;5.30;;
5475;SDS011;2760;50.000;9.194;2023-06-10T12:22:22;6.43;;;5.83;;
5475;SDS011;2760;50.000;9.194;2023-06-10T12:25:02;7.70;;;5.37;;
5475;SDS011;2760;50.000;9.194;2023-06-10T12:27:34;6.90;;;5.80;;
5475;SDS011;2760;50.000;9.194;2023-06-10T12:30:04;9.93;;;5.37;;
5475;SDS011;2760;50.000;9.194;2023-06-10T12:32:38;6.20;;;5.60;;
5475;SDS011;2760;50.000;9.194;2023-06-10T12:35:08;6.43;;;5.83;;
5475;SDS011;2760;50.000;9.194;2023-06-10T12:37:54;10.70;;;5.57;;
5475;SDS011;2760;50.000;9.194;2023-06-10T12:40:29;7.20;;;5.37;;
5475;SDS011;2760;50.000;9.194;2023-06-10T12:43:01;6.53;;;5.33;;
5475;SDS011;2760;50.000;9.194;2023-06-10T12:45:34;12.70;;;5.57;;
5475;SDS011;2760;50.000;9.194;2023-06-10T12:48:10;6.70;;;5.80;;
5475;SDS011;2760;50.000;9.194;2023-06-10T12:50:43;9.37;;;5.60;;
5475;SDS011;2760;50.000;9.194;2023-06-10T12:53:12;8.17;;;6.00;;
5475;SDS011;2760;50.000;9.194;2023-06-10T12:55:39;6.10;;;5.10;;
5475;SDS011;2760;50.000;9.194;2023-06-10T12:58:07;6.17;;;5.57;;
5475;SDS011;2760;50.000;9.194;2023-06-10T13:00:34;7.77;;;6.10;;
5475;SDS011;2760;50.000;9.194;2023-06-10T13:03:01;6.17;;;5.60;;
5475;SDS011;2760;50.000;9.194;2023-06-10T13:05:30;5.47;;;4.97;;
5475;SDS011;2760;50.000;9.194;2023-06-10T13:08:01;8.10;;;5.10;;
5475;SDS011;2760;50.000;9.194;2023-06-10T13:10:30;4.90;;;4.50;;
5475;SDS011;2760;50.000;9.194;2023-06-10T13:12:57;5.63;;;5.13;;
5475;SDS011;2760;50.000;9.194;2023-06-10T13:15:24;5.80;;;5.30;;
5475;SDS011;2760;50.000;9.194;2023-06-10T13:17:51;6.93;;;5.90;;
5475;SDS011;2760;50.000;9.194;2023-06-10T13:20:19;5.13;;;4.63;;
5475;SDS011;2760;50.000;9.194;2023-06-10T13:22:47;9.30;;;4.73;;
5475;SDS011;2760;50.000;9.194;2023-06-10T13:25:17;5.20;;;4.30;;
5475;SDS011;2760;50.000;9.194;2023-06-10T13:27:52;5.20;;;4.27;;
5475;SDS011;2760;50.000;9.194;2023-06-10T13:30:21;4.63;;;4.23;;
5475;SDS011;2760;50.000;9.194;2023-06-10T13:32:48;4.73;;;4.30;;
5475;SDS011;2760;50.000;9.194;2023-06-10T13:35:16;5.83;;;4.17;;
5475;SDS011;2760;50.000;9.194;2023-06-10T13:37:43;4.63;;;4.23;;
5475;SDS011;2760;50.000;9.194;2023-06-10T13:40:10;4.33;;;3.80;;
5475;SDS011;2760;50.000;9.194;2023-06-10T13:42:38;5.10;;;4.43;;
5475;SDS011;2760;50.000;9.194;2023-06-10T13:45:07;5.00;;;4.50;;
5475;SDS011;2760;50.000;9.194;2023-06-10T13:47:35;4.97;;;4.43;;
5475;SDS011;2760;50.000;9.194;2023-06-10T13:50:03;6.03;;;4.57;;
5475;SDS011;2760;50.000;9.194;2023-06-10T13:52:32;4.60;;;4.20;;
5475;SDS011;2760;50.000;9.194;2023-06-10T13:54:59;4.50;;;4.10;;
5475;SDS011;2760;50.000;9.194;2023-06-10T13:57:26;5.60;;;4.50;;
5475;SDS011;2760;50.000;9.194;2023-06-10T13:59:53;4.20;;;3.80;;
5475;SDS011;2760;50.000;9.194;2023-06-10T14:02:22;7.80;;;4.47;;
5475;SDS011;2760;50.000;9.194;2023-06-10T14:04:50;4.80;;;4.30;;
5475;SDS011;2760;50.000;9.194;2023-06-10T14:07:17;7.73;;;4.00;;
5475;SDS011;2760;50.000;9.194;2023-06-10T14:09:44;5.97;;;4.70;;
5475;SDS011;2760;50.000;9.194;2023-06-10T14:12:11;4.47;;;3.80;;
5475;SDS011;2760;50.000;9.194;2023-06-10T14:14:38;4.93;;;4.20;;
5475;SDS011;2760;50.000;9.194;2023-06-10T14:17:06;4.63;;;4.07;;
5475;SDS011;2760;50.000;9.194;2023-06-10T14:19:35;5.43;;;4.23;;
5475;SDS011;2760;50.000;9.194;2023-06-10T14:22:02;4.47;;;4.00;;
5475;SDS011;2760;50.000;9.194;2023-06-10T14:24:30;4.77;;;4.37;;
5475;SDS011;2760;50.000;9.194;2023-06-10T14:26:58;7.60;;;4.30;;
5475;SDS011;2760;50.000;9.194;2023-06-10T14:29:25;7.83;;;5.20;;
5475;SDS011;2760;50.000;9.194;2023-06-10T14:31:54;6.93;;;4.40;;
5475;SDS011;2760;50.000;9.194;2023-06-10T14:34:21;4.70;;;4.30;;
5475;SDS011;2760;50.000;9.194;2023-06-10T14:36:55;5.47;;;4.33;;
5475;SDS011;2760;50.000;9.194;2023-06-10T14:39:22;8.17;;;4.87;;
5475;SDS011;2760;50.000;9.194;2023-06-10T14:41:49;5.20;;;4.57;;
5475;SDS011;2760;50.000;9.194;2023-06-10T14:44:17;5.33;;;4.83;;
5475;SDS011;2760;50.000;9.194;2023-06-10T14:46:45;6.43;;;4.60;;
5475;SDS011;2760;50.000;9.194;2023-06-10T14:49:12;7.77;;;4.60;;
5475;SDS011;2760;50.000;9.194;2023-06-10T14:51:45;6.07;;;4.93;;
5475;SDS011;2760;50.000;9.194;2023-06-10T14:54:29;5.93;;;5.23;;
5475;SDS011;2760;50.000;9.194;2023-06-10T14:57:10;5.73;;;4.33;;
5475;SDS011;2760;50.000;9.194;2023-06-10T14:59:56;6.30;;;4.50;;
5475;SDS011;2760;50.000;9.194;2023-06-10T15:02:24;5.00;;;4.50;;
5475;SDS011;2760;50.000;9.194;2023-06-10T15:04:55;5.40;;;4.13;;
5475;SDS011;2760;50.000;9.194;2023-06-10T15:07:23;10.67;;;4.70;;
5475;SDS011;2760;50.000;9.194;2023-06-10T15:09:51;6.00;;;4.27;;
5475;SDS011;2760;50.000;9.194;2023-06-10T15:12:21;4.83;;;4.33;;
5475;SDS011;2760;50.000;9.194;2023-06-10T15:14:48;6.30;;;4.00;;
5475;SDS011;2760;50.000;9.194;2023-06-10T15:17:15;4.97;;;4.23;;
5475;SDS011;2760;50.000;9.194;2023-06-10T15:19:42;4.13;;;3.60;;
5475;SDS011;2760;50.000;9.194;2023-06-10T15:22:15;5.60;;;4.00;;
5475;SDS011;2760;50.000;9.194;2023-06-10T15:24:42;5.50;;;4.23;;
5475;SDS011;2760;50.000;9.194;2023-06-10T15:27:13;12.33;;;4.80;;
5475;SDS011;2760;50.000;9.194;2023-06-10T15:29:41;4.70;;;4.27;;
5475;SDS011;2760;50.000;9.194;2023-06-10T15:32:10;5.10;;;4.33;;
5475;SDS011;2760;50.000;9.194;2023-06-10T15:34:39;5.80;;;4.17;;
5475;SDS011;2760;50.000;9.194;2023-06-10T15:37:09;8.97;;;4.97;;
5475;SDS011;2760;50.000;9.194;2023-06-10T15:39:36;4.97;;;3.67;;
5475;SDS011;2760;50.000;9.194;2023-06-10T15:42:03;6.30;;;4.60;;
5475;SDS011;2760;50.000;9.194;2023-06-10T15:44:32;10.10;;;4.30;;
5475;SDS011;2760;50.000;9.194;2023-06-10T15:46:59;6.40;;;5.20;;
5475;SDS011;2760;50.000;9.194;2023-06-10T15:49:26;5.27;;;4.47;;
5475;SDS011;2760;50.000;9.194;2023-06-10T15:51:53;5.30;;;4.80;;
5475;SDS011;2760;50.000;9.194;2023-06-10T15:54:20;5.40;;;4.70;;
5475;SDS011;2760;50.000;9.194;2023-06-10T15:56:47;7.80;;;5.00;;
5475;SDS011;2760;50.000;9.194;2023-06-10T15:59:14;7.93;;;4.50;;
5475;SDS011;2760;50.000;9.194;2023-06-10T16:01:46;11.93;;;4.77;;
5475;SDS011;2760;50.000;9.194;2023-06-10T16:04:14;6.47;;;4.43;;
5475;SDS011;2760;50.000;9.194;2023-06-10T16:06:41;5.77;;;4.87;;
5475;SDS011;2760;50.000;9.194;2023-06-10T16:09:08;8.90;;;5.30;;
5475;SDS011;2760;50.000;9.194;2023-06-10T16:11:38;6.97;;;4.93;;
5475;SDS011;2760;50.000;9.194;2023-06-10T16:14:05;5.30;;;4.80;;
5475;SDS011;2760;50.000;9.194;2023-06-10T16:16:32;6.30;;;4.43;;
5475;SDS011;2760;50.000;9.194;2023-06-10T16:19:08;8.07;;;5.17;;
5475;SDS011;2760;50.000;9.194;2023-06-10T16:22:06;5.30;;;4.80;;
5475;SDS011;2760;50.000;9.194;2023-06-10T16:24:34;5.13;;;4.70;;
5475;SDS011;2760;50.000;9.194;2023-06-10T16:27:04;9.00;;;5.50;;
5475;SDS011;2760;50.000;9.194;2023-06-10T16:29:32;5.73;;;5.23;;
5475;SDS011;2760;50.000;9.194;2023-06-10T16:31:59;7.33;;;5.07;;
5475;SDS011;2760;50.000;9.194;2023-06-10T16:34:28;6.97;;;4.83;;
5475;SDS011;2760;50.000;9.194;2023-06-10T16:36:58;4.97;;;4.57;;
5475;SDS011;2760;50.000;9.194;2023-06-10T16:39:25;4.97;;;4.53;;
5475;SDS011;2760;50.000;9.194;2023-06-10T16:41:57;11.03;;;4.77;;
5475;SDS011;2760;50.000;9.194;2023-06-10T16:44:25;7.30;;;5.83;;
5475;SDS011;2760;50.000;9.194;2023-06-10T16:46:56;6.70;;;5.90;;
5475;SDS011;2760;50.000;9.194;2023-06-10T16:49:23;5.77;;;5.27;;
5475;SDS011;2760;50.000;9.194;2023-06-10T16:51:54;7.80;;;5.80;;
5475;SDS011;2760;50.000;9.194;2023-06-10T16:54:22;7.23;;;5.57;;
5475;SDS011;2760;50.000;9.194;2023-06-10T16:56:49;7.00;;;6.37;;
5475;SDS011;2760;50.000;9.194;2023-06-10T16:59:17;13.30;;;6.57;;
5475;SDS011;2760;50.000;9.194;2023-06-10T17:01:47;7.30;;;6.60;;
5475;SDS011;2760;50.000;9.194;2023-06-10T17:04:16;7.30;;;6.20;;
5475;SDS011;2760;50.000;9.194;2023-06-10T17:06:43;10.63;;;5.90;;
5475;SDS011;2760;50.000;9.194;2023-06-10T17:09:12;7.20;;;6.60;;
5475;SDS011;2760;50.000;9.194;2023-06-10T17:11:41;8.10;;;6.57;;
5475;SDS011;2760;50.000;9.194;2023-06-10T17:14:15;7.40;;;6.63;;
5475;SDS011;2760;50.000;9.194;2023-06-10T17:16:43;7.50;;;6.80;;
5475;SDS011;2760;50.000;9.194;2023-06-10T17:19:10;8.07;;;6.60;;
5475;SDS011;2760;50.000;9.194;2023-06-10T17:21:37;9.07;;;6.97;;
5475;SDS011;2760;50.000;9.194;2023-06-10T17:24:05;8.80;;;7.00;;
5475;SDS011;2760;50.000;9.194;2023-06-10T17:26:35;8.43;;;5.60;;
5475;SDS011;2760;50.000;9.194;2023-06-10T17:29:02;15.07;;;6.60;;
5475;SDS011;2760;50.000;9.194;2023-06-10T17:31:30;12.20;;;8.40;;
5475;SDS011;2760;50.000;9.194;2023-06-10T17:33:57;10.20;;;8.10;;
5475;SDS011;2760;50.000;9.194;2023-06-10T17:36:26;9.13;;;7.20;;
5475;SDS011;2760;50.000;9.194;2023-06-10T17:38:54;7.30;;;6.60;;
5475;SDS011;2760;50.000;9.194;2023-06-10T17:41:22;7.43;;;6.57;;
5475;SDS011;2760;50.000;9.194;2023-06-10T17:44:01;8.40;;;7.00;;
5475;SDS011;2760;50.000;9.194;2023-06-10T17:46:28;7.57;;;6.87;;
5475;SDS011;2760;50.000;9.194;2023-06-10T17:49:05;7.80;;;6.93;;
5475;SDS011;2760;50.000;9.194;2023-06-10T17:51:34;9.93;;;7.50;;
5475;SDS011;2760;50.000;9.194;2023-06-10T17:54:03;7.40;;;6.60;;
5475;SDS011;2760;50.000;9.194;2023-06-10T17:56:32;8.53;;;7.73;;
5475;SDS011;2760;50.000;9.194;2023-06-10T17:59:02;10.37;;;7.30;;
5475;SDS011;2760;50.000;9.194;2023-06-10T18:01:29;7.60;;;6.90;;
5475;SDS011;2760;50.000;9.194;2023-06-10T18:03:59;7.63;;;6.83;;
5475;SDS011;2760;50.000;9.194;2023-06-10T18:06:30;10.67;;;8.07;;
5475;SDS011;2760;50.000;9.194;2023-06-10T18:08:57;11.07;;;7.60;;
5475;SDS011;2760;50.000;9.194;2023-06-10T18:11:26;8.10;;;7.30;;
5475;SDS011;2760;50.000;9.194;2023-06-10T18:13:53;7.90;;;7.10;;
5475;SDS011;2760;50.000;9.194;2023-06-10T18:16:25;7.80;;;7.10;;
5475;SDS011;2760;50.000;9.194;2023-06-10T18:18:54;12.73;;;7.17;;
5475;SDS011;2760;50.000;9.194;2023-06-10T18:21:21;7.53;;;6.93;;
5475;SDS011;2760;50.000;9.194;2023-06-10T18:23:48;7.90;;;6.70;;
5475;SDS011;2760;50.000;9.194;2023-06-10T18:26:29;8.60;;;7.80;;
5475;SDS011;2760;50.000;9.194;2023-06-10T18:29:01;8.00;;;7.27;;
5475;SDS011;2760;50.000;9.194;2023-06-10T18:31:33;8.63;;;7.73;;
5475;SDS011;2760;50.000;9.194;2023-06-10T18:34:10;13.80;;;7.50;;
5475;SDS011;2760;50.000;9.194;2023-06-10T18:36:52;8.50;;;7.10;;
5475;SDS011;2760;50.000;9.194;2023-06-10T18:39:33;8.20;;;7.40;;
5475;SDS011;2760;50.000;9.194;2023-06-10T18:42:15;8.00;;;7.20;;
5475;SDS011;2760;50.000;9.194;2023-06-10T18:44:57;8.27;;;7.30;;
5475;SDS011;2760;50.000;9.194;2023-06-10T18:50:59;9.70;;;8.57;;
5475;SDS011;2760;50.000;9.194;2023-06-10T18:53:40;8.20;;;7.40;;
5475;SDS011;2760;50.000;9.194;2023-06-10T18:56:12;8.83;;;7.90;;
5475;SDS011;2760;50.000;9.194;2023-06-10T18:58:43;8.83;;;8.00;;
5475;SDS011;2760;50.000;9.194;2023-06-10T19:01:16;8.10;;;6.70;;
5475;SDS011;2760;50.000;9.194;2023-06-10T19:04:01;9.50;;;7.57;;
5475;SDS011;2760;50.000;9.194;2023-06-10T19:06:31;10.30;;;7.83;;
5475;SDS011;2760;50.000;9.194;2023-06-10T19:08:58;13.47;;;10.67;;
5475;SDS011;2760;50.000;9.194;2023-06-10T19:11:26;9.20;;;8.30;;
5475;SDS011;2760;50.000;9.194;2023-06-10T19:13:54;8.60;;;7.70;;
5475;SDS011;2760;50.000;9.194;2023-06-10T19:16:21;10.03;;;9.03;;
5475;SDS011;2760;50.000;9.194;2023-06-10T19:18:49;9.40;;;8.13;;
5475;SDS011;2760;50.000;9.194;2023-06-10T19:21:20;10.07;;;7.73;;
5475;SDS011;2760;50.000;9.194;2023-06-10T19:23:52;9.27;;;8.37;;
5475;SDS011;2760;50.000;9.194;2023-06-10T19:26:21;9.60;;;8.60;;
5475;SDS011;2760;50.000;9.194;2023-06-10T19:28:48;8.40;;;7.67;;
5475;SDS011;2760;50.000;9.194;2023-06-10T19:31:17;9.57;;;8.00;;
5475;SDS011;2760;50.000;9.194;2023-06-10T19:33:44;9.20;;;8.30;;
5475;SDS011;2760;50.000;9.194;2023-06-10T19:36:11;9.03;;;8.10;;
5475;SDS011;2760;50.000;9.194;2023-06-10T19:38:38;10.63;;;8.57;;
5475;SDS011;2760;50.000;9.194;2023-06-10T19:41:08;9.07;;;8.17;;
5475;SDS011;2760;50.000;9.194;2023-06-10T19:43:50;8.90;;;8.00;;
5475;SDS011;2760;50.000;9.194;2023-06-10T19:46:17;11.33;;;8.90;;
5475;SDS011;2760;50.000;9.194;2023-06-10T19:48:47;8.30;;;7.50;;
5475;SDS011;2760;50.000;9.194;2023-06-10T19:51:15;9.17;;;8.27;;
5475;SDS011;2760;50.000;9.194;2023-06-10T19:53:43;9.00;;;8.20;;
5475;SDS011;2760;50.000;9.194;2023-06-10T19:56:13;8.70;;;7.93;;
5475;SDS011;2760;50.000;9.194;2023-06-10T19:58:44;9.13;;;7.57;;
5475;SDS011;2760;50.000;9.194;2023-06-10T20:01:11;8.63;;;7.83;;
5475;SDS011;2760;50.000;9.194;2023-06-10T20:03:39;8.87;;;7.97;;
5475;SDS011;2760;50.000;9.194;2023-06-10T20:06:07;9.10;;;8.30;;
5475;SDS011;2760;50.000;9.194;2023-06-10T20:08:34;10.57;;;8.20;;
5475;SDS011;2760;50.000;9.194;2023-06-10T20:11:01;8.90;;;7.80;;
5475;SDS011;2760;50.000;9.194;2023-06-10T20:13:30;8.90;;;8.10;;
5475;SDS011;2760;50.000;9.194;2023-06-10T20:15:57;9.73;;;8.17;;
5475;SDS011;2760;50.000;9.194;2023-06-10T20:18:25;10.37;;;7.53;;
5475;SDS011;2760;50.000;9.194;2023-06-10T20:20:52;8.40;;;7.57;;
5475;SDS011;2760;50.000;9.194;2023-06-10T20:23:19;12.17;;;8.40;;
5475;SDS011;2760;50.000;9.194;2023-06-10T20:25:47;8.93;;;8.07;;
5475;SDS011;2760;50.000;9.194;2023-06-10T20:28:29;11.03;;;8.20;;
5475;SDS011;2760;50.000;9.194;2023-06-10T20:30:57;8.50;;;7.70;;